Time;durP1;ratioP1;P1;durP2;ratioP2;P2;SDS_P1;SDS_P2;PMS_P1;PMS_P2;Temp;Humidity;BMP_temperature;BMP_pressure;BME280_temperature;BME280_humidity;BME280_pressure;Samples;Min_cycle;Max_cycle;Signal;HPM_P1;HPM_P2
2021/06/21 00:01:07;;;;;;;5.38;4.10;;;;;;;24.08;50.99;100629.69;5031014;28;20124;-64
2021/06/21 00:03:35;;;;;;;6.13;3.92;;;;;;;24.03;50.91;100638.91;5030904;28;20045;-64
2021/06/21 00:06:02;;;;;;;5.93;3.97;;;;;;;24.01;50.97;100639.00;5030484;28;20047;-64
2021/06/21 00:08:30;;;;;;;6.93;4.38;;;;;;;24.02;51.20;100640.75;5030554;28;20133;-63
2021/06/21 00:10:57;;;;;;;5.43;4.43;;;;;;;23.90;51.46;100641.22;5030629;28;20040;-64
2021/06/21 00:13:24;;;;;;;7.15;4.72;;;;;;;23.85;51.77;100632.47;5030588;28;20040;-63
2021/06/21 00:15:53;;;;;;;5.85;4.10;;;;;;;23.86;52.06;100641.44;5030009;28;20124;-63
2021/06/21 00:18:21;;;;;;;8.23;5.03;;;;;;;23.83;52.25;100634.34;5030783;28;20406;-63
2021/06/21 00:20:49;;;;;;;6.88;4.88;;;;;;;23.85;52.28;100635.16;5029719;28;20045;-63
2021/06/21 00:23:16;;;;;;;6.40;4.45;;;;;;;23.87;52.41;100633.28;5049144;28;20080;-64
2021/06/21 00:25:44;;;;;;;6.82;4.22;;;;;;;23.91;52.44;100620.53;5049740;28;20454;-64
2021/06/21 00:28:12;;;;;;;7.65;4.70;;;;;;;23.84;52.46;100633.41;5050205;28;20056;-63
2021/06/21 00:30:40;;;;;;;7.93;4.50;;;;;;;23.71;52.86;100630.31;5049687;28;20045;-63
2021/06/21 00:33:09;;;;;;;6.68;4.15;;;;;;;23.62;53.21;100636.09;5049645;28;20120;-64
2021/06/21 00:35:37;;;;;;;6.07;4.18;;;;;;;23.60;53.31;100632.59;5048989;28;20064;-63
2021/06/21 00:38:05;;;;;;;6.40;4.40;;;;;;;23.68;53.36;100626.88;5049493;28;20512;-64
2021/06/21 00:40:33;;;;;;;8.55;3.95;;;;;;;23.71;53.35;100614.16;5049783;28;20029;-63
2021/06/21 00:43:00;;;;;;;7.05;4.25;;;;;;;23.72;53.29;100615.03;5049838;28;20034;-63
2021/06/21 00:45:28;;;;;;;7.32;4.47;;;;;;;23.69;53.41;100616.06;5048702;28;20098;-64
2021/06/21 00:47:56;;;;;;;7.13;4.13;;;;;;;23.69;53.61;100616.06;5049250;28;20040;-64
2021/06/21 00:50:28;;;;;;;6.47;4.22;;;;;;;23.72;53.59;100613.22;5048682;28;20468;-63
2021/06/21 00:52:59;;;;;;;9.27;4.80;;;;;;;23.70;53.58;100607.00;5048458;28;20071;-64
2021/06/21 00:55:28;;;;;;;6.78;4.22;;;;;;;23.63;53.76;100608.19;5049710;28;20049;-64
2021/06/21 00:57:56;;;;;;;5.35;3.97;;;;;;;23.63;53.88;100610.03;5049006;28;20053;-64
2021/06/21 01:00:26;;;;;;;6.28;4.65;;;;;;;23.65;54.09;100609.00;5047978;28;20040;-63
2021/06/21 01:02:54;;;;;;;5.90;4.07;;;;;;;23.66;54.21;100610.78;5047680;28;20137;-63
2021/06/21 01:05:24;;;;;;;6.25;4.55;;;;;;;23.66;54.30;100616.16;5048840;28;20033;-63
2021/06/21 01:07:54;;;;;;;7.70;4.30;;;;;;;23.67;54.43;100623.31;5048539;28;20041;-63
2021/06/21 01:10:25;;;;;;;5.40;3.95;;;;;;;23.64;54.40;100619.84;5049410;28;20041;-63
2021/06/21 01:13:13;;;;;;;8.70;5.00;;;;;;;23.63;54.72;100626.22;5048365;28;20048;-63
2021/06/21 01:15:45;;;;;;;8.73;4.30;;;;;;;23.44;55.02;100615.22;5037032;28;20036;-64
2021/06/21 01:18:18;;;;;;;6.47;4.35;;;;;;;23.34;55.34;100613.84;5048392;28;20041;-64
2021/06/21 01:21:03;;;;;;;8.90;4.88;;;;;;;23.37;55.18;100621.78;5029600;28;20095;-64
2021/06/21 01:23:56;;;;;;;;;;;;;;;23.33;55.29;100620.16;5029805;28;20071;-64
2021/06/21 01:26:28;;;;;;;6.68;3.65;;;;;;;23.38;55.33;100613.66;5031407;28;19921;-64
2021/06/21 01:29:22;;;;;;;5.70;4.22;;;;;;;23.39;55.57;100623.50;5029351;28;20026;-63
2021/06/21 01:31:54;;;;;;;6.72;4.65;;;;;;;23.41;55.17;100615.34;5021915;28;20041;-64
2021/06/21 01:34:28;;;;;;;7.10;4.50;;;;;;;23.42;55.19;100611.72;5028889;28;20080;-64
2021/06/21 01:37:00;;;;;;;7.10;4.70;;;;;;;23.34;55.33;100619.22;5028621;28;20037;-64
2021/06/21 01:39:30;;;;;;;5.95;4.68;;;;;;;23.32;55.49;100616.59;5029182;28;20041;-64
2021/06/21 01:42:04;;;;;;;7.28;4.72;;;;;;;23.36;55.63;100612.88;5029062;28;20120;-63
2021/06/21 01:44:35;;;;;;;7.75;4.78;;;;;;;23.38;55.61;100612.78;5029002;28;20038;-63
2021/06/21 01:47:06;;;;;;;7.28;4.57;;;;;;;23.33;55.76;100604.88;5028698;28;20144;-64
2021/06/21 01:49:40;;;;;;;5.97;4.03;;;;;;;23.29;55.98;100610.47;5028525;28;20113;-64
2021/06/21 01:52:10;;;;;;;6.63;4.43;;;;;;;23.18;56.25;100618.94;5029203;28;20520;-64
2021/06/21 01:54:42;;;;;;;5.78;4.63;;;;;;;23.07;56.69;100620.28;5028604;28;20049;-64
2021/06/21 01:57:10;;;;;;;8.55;4.68;;;;;;;23.07;56.81;100620.28;5029214;28;20030;-64
2021/06/21 01:59:37;;;;;;;6.68;4.80;;;;;;;23.11;56.70;100624.63;5028888;28;20116;-63
2021/06/21 02:02:07;;;;;;;8.43;5.20;;;;;;;23.14;56.77;100628.09;5028851;28;20044;-63
2021/06/21 02:04:37;;;;;;;6.75;5.07;;;;;;;23.15;56.77;100631.66;5028495;28;20038;-64
2021/06/21 02:07:07;;;;;;;6.97;4.53;;;;;;;23.11;56.65;100632.69;5028453;28;20044;-63
2021/06/21 02:09:36;;;;;;;6.50;4.50;;;;;;;23.14;56.71;100632.59;5026061;28;20084;-64
2021/06/21 02:12:06;;;;;;;7.78;4.90;;;;;;;23.18;56.60;100629.72;5027501;28;20052;-63
2021/06/21 02:14:36;;;;;;;8.13;5.15;;;;;;;23.21;56.67;100624.22;5026567;28;20053;-63
2021/06/21 02:17:06;;;;;;;6.25;4.40;;;;;;;23.20;56.49;100609.00;5027585;28;20049;-63
2021/06/21 02:19:38;;;;;;;6.72;4.53;;;;;;;23.15;56.59;100619.06;5026871;28;20434;-63
2021/06/21 02:22:05;;;;;;;6.80;4.38;;;;;;;23.15;56.55;100612.81;5027314;28;20132;-64
2021/06/21 02:24:35;;;;;;;8.52;4.60;;;;;;;23.16;56.72;100625.34;5028677;28;20063;-64
2021/06/21 02:27:03;;;;;;;9.68;4.93;;;;;;;23.15;56.69;100619.06;5028931;28;20040;-64
2021/06/21 02:29:32;;;;;;;7.15;4.38;;;;;;;23.13;56.98;100630.84;5028463;28;20057;-64
2021/06/21 02:32:01;;;;;;;7.00;4.88;;;;;;;23.00;57.17;100634.00;5028466;28;20109;-64
2021/06/21 02:34:31;;;;;;;6.40;4.40;;;;;;;22.92;57.52;100629.81;5027636;28;20494;-64
2021/06/21 02:36:59;;;;;;;7.55;4.80;;;;;;;22.97;57.55;100628.72;5027302;28;20128;-63
2021/06/21 02:39:27;;;;;;;7.93;4.47;;;;;;;22.99;57.31;100632.22;5028531;28;20054;-64
2021/06/21 02:41:54;;;;;;;8.45;4.53;;;;;;;23.00;57.31;100636.69;5028484;28;20530;-63
2021/06/21 02:44:22;;;;;;;8.25;4.57;;;;;;;23.01;57.33;100642.97;5027823;28;20034;-64
2021/06/21 02:46:50;;;;;;;6.85;4.57;;;;;;;23.01;57.39;100633.06;5028657;28;20041;-63
2021/06/21 02:49:18;;;;;;;8.10;4.40;;;;;;;23.05;57.44;100631.13;5025737;28;20562;-63
2021/06/21 02:51:52;;;;;;;7.07;4.50;;;;;;;23.09;57.60;100623.81;5031914;28;20121;-64
2021/06/21 02:54:27;;;;;;;7.38;4.63;;;;;;;23.12;57.97;100624.56;5034587;28;20049;-64
2021/06/21 02:57:05;;;;;;;6.63;4.28;;;;;;;23.15;58.05;100634.34;5036351;28;20047;-64
2021/06/21 02:59:37;;;;;;;6.95;4.90;;;;;;;23.15;58.20;100640.63;5051725;28;20025;-64
2021/06/21 03:02:08;;;;;;;10.30;5.10;;;;;;;23.14;58.03;100627.22;5050275;28;20382;-63
2021/06/21 03:04:40;;;;;;;10.35;5.60;;;;;;;23.18;58.41;100636.91;5040295;28;20500;-63
2021/06/21 03:07:10;;;;;;;8.40;4.78;;;;;;;23.16;58.52;100644.19;5032273;28;20045;-63
2021/06/21 03:09:44;;;;;;;6.43;4.38;;;;;;;23.12;58.65;100654.19;5031718;28;20037;-64
2021/06/21 03:12:12;;;;;;;11.57;4.45;;;;;;;22.98;59.05;100660.09;5017070;28;20040;-64
2021/06/21 03:14:46;;;;;;;9.05;5.47;;;;;;;23.03;59.22;100651.88;5031419;28;20056;-63
2021/06/21 03:17:14;;;;;;;7.22;4.95;;;;;;;23.10;58.80;100650.69;5022824;28;20041;-64
2021/06/21 03:19:43;;;;;;;9.75;5.47;;;;;;;23.12;59.05;100648.81;5031176;28;20069;-64
2021/06/21 03:22:11;;;;;;;10.27;5.38;;;;;;;23.27;58.85;100650.94;5031441;28;20055;-64
2021/06/21 03:24:40;;;;;;;8.80;4.65;;;;;;;23.38;58.60;100650.50;5031360;28;20487;-64
2021/06/21 03:27:08;;;;;;;8.82;4.30;;;;;;;23.53;58.54;100640.97;5031116;28;20128;-63
2021/06/21 03:29:37;;;;;;;10.95;4.60;;;;;;;23.61;58.63;100650.53;5031192;28;20563;-64
2021/06/21 03:32:27;;;;;;;7.68;4.20;;;;;;;23.74;58.55;100657.19;5030936;28;20144;-63
2021/06/21 03:34:57;;;;;;;7.88;4.63;;;;;;;23.80;58.50;100662.31;5050758;28;20060;-64
2021/06/21 03:37:25;;;;;;;6.22;4.30;;;;;;;23.84;58.31;100666.63;5050228;28;20039;-63
2021/06/21 03:39:54;;;;;;;5.60;3.90;;;;;;;23.87;58.25;100664.75;5050133;28;20496;-64
2021/06/21 03:42:22;;;;;;;6.93;4.10;;;;;;;23.91;58.09;100664.56;5051376;28;20056;-64
2021/06/21 03:44:50;;;;;;;8.80;4.28;;;;;;;23.97;57.80;100660.72;5051103;28;20116;-64
2021/06/21 03:47:19;;;;;;;6.22;4.07;;;;;;;24.12;57.79;100679.00;5032459;28;20123;-64
2021/06/21 03:49:48;;;;;;;7.18;3.78;;;;;;;24.35;56.98;100673.53;5050445;28;20039;-64
2021/06/21 03:52:17;;;;;;;5.03;3.92;;;;;;;24.52;56.74;100686.31;5050642;28;20132;-64
2021/06/21 03:54:44;;;;;;;9.68;4.25;;;;;;;24.60;56.58;100684.16;5050272;28;20037;-64
2021/06/21 03:57:14;;;;;;;6.53;3.83;;;;;;;24.76;56.20;100682.53;5050427;28;20041;-63
2021/06/21 03:59:41;;;;;;;6.65;3.45;;;;;;;24.92;56.20;100685.47;5050067;28;20074;-63
2021/06/21 04:02:09;;;;;;;5.13;3.60;;;;;;;25.13;55.90;100680.94;5050609;28;20099;-64
2021/06/21 04:04:36;;;;;;;6.93;3.70;;;;;;;25.30;55.76;100679.19;5050306;28;20120;-64
2021/06/21 04:07:05;;;;;;;5.57;3.22;;;;;;;25.46;56.00;100689.31;5050558;28;20037;-64
2021/06/21 04:09:32;;;;;;;5.78;3.42;;;;;;;25.64;55.77;100692.03;5050322;28;20037;-64
2021/06/21 04:11:59;;;;;;;6.13;3.42;;;;;;;25.79;55.23;100682.31;5050175;28;20047;-64
2021/06/21 04:14:29;;;;;;;5.82;3.60;;;;;;;26.00;54.99;100681.25;5050203;28;20041;-64
2021/06/21 04:16:57;;;;;;;7.63;3.28;;;;;;;26.10;54.54;100690.69;5049896;28;20047;-64
2021/06/21 04:19:24;;;;;;;6.70;3.25;;;;;;;26.23;54.46;100698.19;5049996;28;20125;-64
2021/06/21 04:21:51;;;;;;;7.18;3.03;;;;;;;26.43;54.14;100695.38;5049425;28;20122;-64
2021/06/21 04:24:19;;;;;;;4.32;3.25;;;;;;;26.64;53.56;100698.81;5050495;28;20045;-65
2021/06/21 04:26:47;;;;;;;6.43;3.30;;;;;;;26.79;52.91;100703.41;5034168;28;20564;-64
2021/06/21 04:29:14;;;;;;;4.50;2.97;;;;;;;26.95;52.72;100697.16;5029428;28;20038;-64
2021/06/21 04:31:43;;;;;;;5.30;2.90;;;;;;;27.18;52.11;100700.47;5029843;28;20091;-64
2021/06/21 04:34:11;;;;;;;5.85;2.72;;;;;;;27.39;52.02;100710.13;5029878;28;20036;-64
2021/06/21 04:36:38;;;;;;;4.38;3.03;;;;;;;27.62;51.47;100708.91;5029470;28;20112;-64
2021/06/21 04:39:06;;;;;;;4.65;2.97;;;;;;;27.89;51.46;100701.06;5030122;28;20133;-64
2021/06/21 04:41:33;;;;;;;4.18;2.88;;;;;;;28.03;51.34;100702.00;5029674;28;20076;-64
2021/06/21 04:44:02;;;;;;;9.50;2.80;;;;;;;28.05;51.22;100707.34;5029950;28;20533;-64
2021/06/21 04:46:30;;;;;;;4.22;2.70;;;;;;;28.31;50.58;100712.16;5019437;28;20041;-64
2021/06/21 04:48:59;;;;;;;5.15;2.67;;;;;;;28.55;50.44;100715.28;5029498;28;20160;-64
2021/06/21 04:51:27;;;;;;;4.60;2.50;;;;;;;28.88;49.52;100715.97;5030278;28;20133;-64
2021/06/21 04:53:55;;;;;;;4.30;3.00;;;;;;;29.26;48.75;100718.19;5029693;28;20038;-64
2021/06/21 04:56:23;;;;;;;4.55;2.20;;;;;;;29.47;48.37;100722.28;5029561;28;20045;-64
2021/06/21 04:58:51;;;;;;;7.15;3.17;;;;;;;29.78;47.37;100725.78;5030198;28;20044;-64
2021/06/21 05:01:18;;;;;;;5.80;2.67;;;;;;;30.01;46.34;100728.78;5049503;28;20044;-64
2021/06/21 05:03:45;;;;;;;3.92;2.10;;;;;;;30.16;45.80;100729.63;5049017;28;20136;-64
2021/06/21 05:06:14;;;;;;;3.20;2.08;;;;;;;30.40;44.88;100735.28;5049340;28;20497;-65
2021/06/21 05:08:42;;;;;;;3.85;2.10;;;;;;;30.70;44.25;100743.28;5049102;28;20507;-64
2021/06/21 05:11:10;;;;;;;4.30;2.10;;;;;;;30.86;42.63;100741.22;5030328;28;20120;-64
2021/06/21 05:13:37;;;;;;;4.07;2.00;;;;;;;31.34;41.88;100741.53;5048866;28;20544;-65
2021/06/21 05:16:05;;;;;;;2.42;1.90;;;;;;;31.73;40.84;100741.41;5048502;28;20060;-65
2021/06/21 05:18:33;;;;;;;3.72;2.10;;;;;;;32.00;40.10;100744.88;5048172;28;20045;-65
2021/06/21 05:21:00;;;;;;;2.85;1.75;;;;;;;32.19;39.78;100749.88;5049454;28;20628;-65
2021/06/21 05:23:29;;;;;;;3.40;2.10;;;;;;;32.26;39.22;100742.94;5049573;28;20516;-65
2021/06/21 05:25:57;;;;;;;4.60;1.90;;;;;;;32.53;38.24;100741.84;5031527;28;20535;-65
2021/06/21 05:28:25;;;;;;;3.38;2.22;;;;;;;32.67;37.71;100749.91;5048592;28;20037;-64
2021/06/21 05:30:52;;;;;;;2.50;1.70;;;;;;;32.86;37.24;100744.75;5048773;28;20455;-65
2021/06/21 05:33:19;;;;;;;2.85;2.13;;;;;;;33.12;36.75;100746.34;5048524;28;20120;-65
2021/06/21 05:35:47;;;;;;;5.00;1.67;;;;;;;33.46;36.03;100744.56;5033418;28;20041;-64
2021/06/21 05:38:14;;;;;;;3.50;1.70;;;;;;;33.72;35.57;100753.44;5028742;28;20551;-64
2021/06/21 05:40:44;;;;;;;5.57;2.22;;;;;;;33.94;34.81;100758.00;5029129;28;20068;-64
2021/06/21 05:43:11;;;;;;;2.60;2.20;;;;;;;34.19;34.79;100760.50;5022549;28;20061;-63
2021/06/21 05:45:38;;;;;;;4.50;2.22;;;;;;;34.33;34.65;100760.22;5023543;28;20042;-64
2021/06/21 05:48:06;;;;;;;4.05;2.40;;;;;;;34.24;34.82;100765.63;5027758;28;20084;-64
2021/06/21 05:50:37;;;;;;;3.38;2.60;;;;;;;34.51;34.76;100765.19;5028918;28;20121;-64
2021/06/21 05:53:04;;;;;;;3.10;2.30;;;;;;;34.64;34.46;100765.88;5023143;28;20485;-64
2021/06/21 05:55:31;;;;;;;5.50;2.17;;;;;;;34.51;34.34;100763.31;5024964;28;20117;-63
2021/06/21 05:58:01;;;;;;;4.30;2.20;;;;;;;34.52;34.59;100776.03;5025285;28;20050;-63
2021/06/21 06:00:29;;;;;;;3.30;2.28;;;;;;;34.59;34.10;100781.88;5024184;28;20048;-63
2021/06/21 06:02:56;;;;;;;2.97;2.22;;;;;;;34.64;34.08;100779.59;5026220;28;20572;-64
2021/06/21 06:05:23;;;;;;;2.75;2.25;;;;;;;34.75;33.91;100785.94;5026188;28;20136;-64
2021/06/21 06:07:51;;;;;;;3.83;2.10;;;;;;;35.00;33.95;100783.84;5026769;28;20397;-64
2021/06/21 06:10:18;;;;;;;5.78;2.28;;;;;;;34.98;33.49;100794.09;5047863;28;20041;-64
2021/06/21 06:12:45;;;;;;;3.55;2.00;;;;;;;35.02;33.60;100788.19;5045732;28;20108;-64
2021/06/21 06:15:17;;;;;;;2.60;2.00;;;;;;;35.11;33.61;100784.66;5046247;28;20045;-64
2021/06/21 06:17:44;;;;;;;4.10;2.15;;;;;;;35.05;33.28;100784.31;5044776;28;20107;-64
2021/06/21 06:20:13;;;;;;;4.10;2.08;;;;;;;35.02;33.10;100787.31;5046628;28;20124;-64
2021/06/21 06:22:41;;;;;;;3.92;2.22;;;;;;;34.70;33.32;100788.19;5049233;28;20045;-64
2021/06/21 06:25:10;;;;;;;2.75;2.00;;;;;;;34.77;33.11;100781.22;5051966;28;20520;-64
2021/06/21 06:27:38;;;;;;;2.80;2.17;;;;;;;34.92;32.97;100784.50;5050079;28;20065;-64
2021/06/21 06:30:08;;;;;;;2.60;2.03;;;;;;;35.00;32.91;100800.31;5052691;28;20048;-64
2021/06/21 06:32:37;;;;;;;3.83;2.28;;;;;;;35.22;32.65;100793.88;5050979;28;20136;-64
2021/06/21 06:35:06;;;;;;;3.55;2.47;;;;;;;35.27;32.94;100800.69;5049834;28;20060;-64
2021/06/21 06:37:34;;;;;;;4.15;1.95;;;;;;;35.34;32.98;100796.41;5049355;28;20055;-64
2021/06/21 06:40:01;;;;;;;3.20;2.13;;;;;;;35.57;32.64;100794.41;5048229;28;20073;-64
2021/06/21 06:42:29;;;;;;;3.47;2.25;;;;;;;35.56;32.26;100798.16;5049222;28;20389;-64
2021/06/21 06:44:57;;;;;;;3.17;2.45;;;;;;;35.37;32.63;100804.41;5049262;28;20033;-63
2021/06/21 06:47:24;;;;;;;4.00;2.33;;;;;;;35.25;32.89;100802.69;5048349;28;20056;-64
2021/06/21 06:49:53;;;;;;;2.78;2.20;;;;;;;35.35;32.87;100800.03;5052041;28;20037;-64
2021/06/21 06:52:23;;;;;;;4.93;2.30;;;;;;;35.25;32.97;100793.63;5049725;28;20041;-64
2021/06/21 06:56:58;;;;;;;4.25;2.30;;;;;;;35.24;33.37;100789.13;5051309;28;20119;-64
2021/06/21 06:57:39;;;;;;;3.42;2.20;;;;;;;35.31;33.15;100784.84;5049925;28;20124;-64
2021/06/21 07:00:09;;;;;;;4.05;2.30;;;;;;;35.32;33.22;100798.41;5050844;28;20086;-64
2021/06/21 07:02:37;;;;;;;4.95;2.20;;;;;;;35.36;33.24;100791.66;5051929;28;20044;-65
2021/06/21 07:05:07;;;;;;;2.60;2.15;;;;;;;35.38;33.06;100797.88;5050318;28;20047;-64
2021/06/21 07:07:34;;;;;;;2.88;2.22;;;;;;;35.37;33.34;100801.66;5050535;28;20041;-64
2021/06/21 07:10:02;;;;;;;2.65;2.13;;;;;;;35.57;33.19;100797.16;5050468;28;20048;-63
2021/06/21 07:12:29;;;;;;;4.47;2.38;;;;;;;35.58;33.06;100794.25;5046596;28;20072;-64
2021/06/21 07:14:57;;;;;;;3.72;2.10;;;;;;;35.53;33.25;100802.03;5048934;28;20124;-64
2021/06/21 07:17:25;;;;;;;3.70;2.05;;;;;;;35.49;33.39;100789.56;5051139;28;20055;-64
2021/06/21 07:19:52;;;;;;;7.70;2.08;;;;;;;35.13;33.81;100790.00;5051012;28;20041;-64
2021/06/21 07:22:21;;;;;;;2.47;1.80;;;;;;;35.19;33.86;100787.59;5050070;28;20056;-65
2021/06/21 07:24:48;;;;;;;3.75;2.38;;;;;;;35.10;33.94;100777.44;5033663;28;20091;-64
2021/06/21 07:27:16;;;;;;;4.90;2.40;;;;;;;35.22;34.07;100780.13;5050770;28;20049;-64
2021/06/21 07:29:43;;;;;;;4.93;2.10;;;;;;;35.42;33.95;100784.75;5050513;28;20045;-64
2021/06/21 07:32:11;;;;;;;5.05;2.10;;;;;;;35.35;34.22;100783.56;5051222;28;20511;-64
2021/06/21 07:34:39;;;;;;;2.83;2.10;;;;;;;35.54;34.18;100790.03;5049794;28;20124;-64
2021/06/21 07:37:07;;;;;;;4.78;2.55;;;;;;;35.46;34.19;100778.84;5051522;28;20041;-64
2021/06/21 07:39:36;;;;;;;4.13;2.28;;;;;;;35.51;34.53;100786.69;5049949;28;20040;-64
2021/06/21 07:42:04;;;;;;;4.65;2.47;;;;;;;35.54;34.40;100786.41;5050165;28;20122;-64
2021/06/21 07:44:32;;;;;;;3.42;1.95;;;;;;;35.71;34.16;100784.97;5034197;28;20068;-64
2021/06/21 07:46:59;;;;;;;3.20;2.20;;;;;;;35.37;34.38;100793.41;5028802;28;20404;-64
2021/06/21 07:49:27;;;;;;;3.88;2.40;;;;;;;35.07;34.90;100791.41;5030936;28;20099;-64
2021/06/21 07:51:54;;;;;;;3.28;2.65;;;;;;;35.28;34.61;100799.69;5029883;28;20061;-64
2021/06/21 07:54:22;;;;;;;5.88;3.08;;;;;;;35.52;34.54;100792.03;5030561;28;20052;-65
2021/06/21 07:56:51;;;;;;;3.70;2.58;;;;;;;35.87;34.06;100797.19;5027592;28;20049;-64
2021/06/21 07:59:19;;;;;;;3.03;2.33;;;;;;;35.70;34.26;100792.34;5029531;28;20041;-64
2021/06/21 08:01:46;;;;;;;3.80;2.20;;;;;;;35.26;35.06;100792.59;5030990;28;20520;-64
2021/06/21 08:04:14;;;;;;;6.15;2.20;;;;;;;35.20;35.41;100788.47;5029968;28;20125;-64
2021/06/21 08:06:42;;;;;;;3.10;2.10;;;;;;;34.87;35.63;100799.63;5030487;28;20657;-64
2021/06/21 08:09:09;;;;;;;3.25;2.10;;;;;;;34.35;37.02;100804.84;5029903;28;20042;-64
2021/06/21 08:11:37;;;;;;;4.40;2.40;;;;;;;34.67;36.67;100804.88;5030014;28;20041;-64
2021/06/21 08:14:06;;;;;;;5.03;2.38;;;;;;;34.78;36.40;100807.66;5027472;28;20112;-64
2021/06/21 08:16:33;;;;;;;2.20;1.95;;;;;;;34.62;36.62;100807.16;5029835;28;20042;-64
2021/06/21 08:19:01;;;;;;;4.55;2.50;;;;;;;34.92;36.17;100811.09;5030629;28;20383;-64
2021/06/21 08:21:29;;;;;;;5.38;2.38;;;;;;;34.97;35.82;100809.69;5029299;28;20038;-64
2021/06/21 08:23:58;;;;;;;4.72;2.25;;;;;;;35.23;35.05;100812.97;5029540;28;20041;-63
2021/06/21 08:26:25;;;;;;;2.80;1.80;;;;;;;35.20;35.21;100818.66;5030386;28;20042;-64
2021/06/21 08:28:53;;;;;;;3.08;2.03;;;;;;;35.06;35.34;100811.63;5029404;28;20057;-65
2021/06/21 08:31:22;;;;;;;3.55;2.22;;;;;;;34.99;35.11;100810.41;5037146;28;20125;-64
2021/06/21 08:33:49;;;;;;;5.80;2.65;;;;;;;34.99;35.40;100813.16;5032391;28;20117;-64
2021/06/21 08:36:17;;;;;;;2.80;1.95;;;;;;;35.10;35.01;100810.38;5030362;28;20067;-64
2021/06/21 08:38:44;;;;;;;4.57;2.25;;;;;;;35.13;34.79;100803.72;5029753;28;20493;-64
2021/06/21 08:41:11;;;;;;;4.20;2.00;;;;;;;34.97;35.20;100803.31;5029820;28;20049;-64
2021/06/21 08:43:40;;;;;;;3.13;1.90;;;;;;;35.28;34.75;100810.69;5028024;28;20049;-64
2021/06/21 08:46:07;;;;;;;2.70;1.83;;;;;;;35.63;33.68;100810.34;5027906;28;20374;-64
2021/06/21 08:48:42;;;;;;;2.67;1.67;;;;;;;35.66;33.47;100810.06;5028682;28;20049;-64
2021/06/21 08:51:12;;;;;;;2.60;1.88;;;;;;;35.67;32.82;100805.44;5028850;28;20049;-64
2021/06/21 08:53:40;;;;;;;2.70;1.90;;;;;;;35.56;32.41;100804.50;5029133;28;20120;-63
2021/06/21 08:56:08;;;;;;;3.95;1.60;;;;;;;35.79;32.20;100805.22;5029526;28;20030;-65
2021/06/21 08:58:35;;;;;;;2.22;1.45;;;;;;;35.99;31.33;100808.06;5028146;28;20041;-64
2021/06/21 09:01:04;;;;;;;2.83;1.27;;;;;;;35.97;30.33;100802.72;5023261;28;20054;-64
2021/06/21 09:03:35;;;;;;;2.72;1.20;;;;;;;36.25;29.69;100799.22;5043416;28;20121;-63
2021/06/21 09:06:18;;;;;;;2.85;1.00;;;;;;;36.18;27.99;100810.91;5030408;28;20485;-64
2021/06/21 09:08:56;;;;;;;2.08;0.95;;;;;;;36.17;27.03;100811.97;5029115;28;20033;-64
2021/06/21 09:11:53;;;;;;;2.13;1.17;;;;;;;36.03;27.44;100806.81;5027831;28;20042;-64
2021/06/21 09:14:34;;;;;;;2.17;1.20;;;;;;;35.97;28.01;100792.56;5040461;28;20045;-63
2021/06/21 09:17:04;;;;;;;1.73;1.20;;;;;;;36.25;27.91;100806.59;5029752;28;20041;-64
2021/06/21 09:19:43;;;;;;;1.45;1.10;;;;;;;36.58;27.10;100799.88;5027541;28;20060;-63
2021/06/21 09:22:24;;;;;;;2.08;1.30;;;;;;;36.72;27.23;100796.75;5027438;28;20128;-63
2021/06/21 09:24:52;;;;;;;1.00;0.90;;;;;;;36.75;26.71;100798.34;5026201;28;20037;-64
2021/06/21 09:27:21;;;;;;;3.10;1.30;;;;;;;36.73;26.36;100793.84;5024484;28;20041;-65
2021/06/21 09:29:49;;;;;;;1.23;0.93;;;;;;;36.88;26.03;100799.81;5026423;28;20037;-64
2021/06/21 09:32:17;;;;;;;1.45;1.00;;;;;;;36.85;26.07;100801.97;5029109;28;20052;-64
2021/06/21 09:34:45;;;;;;;1.55;1.20;;;;;;;36.88;25.93;100798.94;5025522;28;20034;-63
2021/06/21 09:37:14;;;;;;;3.15;1.20;;;;;;;36.92;25.82;100795.75;5028826;28;20072;-64
2021/06/21 09:39:44;;;;;;;1.33;0.90;;;;;;;37.16;25.27;100802.72;5027545;28;22559;-64
2021/06/21 09:42:20;;;;;;;1.13;0.73;;;;;;;37.30;24.99;100805.03;5028784;28;20422;-64
2021/06/21 09:44:49;;;;;;;2.70;1.35;;;;;;;37.31;25.24;100815.03;5025974;28;20044;-63
2021/06/21 09:47:26;;;;;;;1.52;1.33;;;;;;;37.33;25.45;100805.63;5026640;28;20048;-64
2021/06/21 09:50:02;;;;;;;1.55;1.30;;;;;;;37.15;25.43;100803.75;5027617;28;20056;-64
2021/06/21 09:52:34;;;;;;;1.23;1.05;;;;;;;36.86;24.97;100812.84;5023735;28;20041;-64
2021/06/21 09:55:13;;;;;;;1.27;0.98;;;;;;;36.26;25.31;100800.97;5007116;28;20049;-63
2021/06/21 09:57:42;;;;;;;3.60;1.08;;;;;;;36.28;25.85;100798.09;5027386;28;20061;-63
2021/06/21 10:00:11;;;;;;;1.88;0.98;;;;;;;36.27;25.77;100799.97;5024831;28;20552;-63
2021/06/21 10:02:39;;;;;;;1.13;1.00;;;;;;;36.41;25.52;100809.72;5024287;28;20412;-64
2021/06/21 10:05:20;;;;;;;2.13;1.40;;;;;;;36.55;25.80;100813.94;5023050;28;20044;-64
2021/06/21 10:07:48;;;;;;;2.03;1.08;;;;;;;36.64;25.89;100807.56;5023477;28;20045;-64
2021/06/21 10:10:22;;;;;;;3.47;1.23;;;;;;;36.52;25.67;100797.69;5023472;28;20044;-63
2021/06/21 10:12:52;;;;;;;1.52;1.15;;;;;;;36.38;25.87;100795.34;5029183;28;20509;-64
2021/06/21 10:15:21;;;;;;;1.55;1.30;;;;;;;36.40;26.09;100796.09;5045897;28;20171;-63
2021/06/21 10:17:49;;;;;;;1.48;1.20;;;;;;;36.40;25.86;100807.09;5045426;28;20560;-64
2021/06/21 10:20:18;;;;;;;2.22;1.10;;;;;;;36.23;25.69;100804.03;5044639;28;20049;-64
2021/06/21 10:22:49;;;;;;;1.48;1.30;;;;;;;35.81;26.14;100796.84;5045616;28;20116;-64
2021/06/21 10:25:19;;;;;;;2.80;1.38;;;;;;;35.42;27.22;100798.50;5044441;28;20049;-63
2021/06/21 10:27:47;;;;;;;2.72;1.13;;;;;;;35.32;27.26;100803.03;5042090;28;20048;-64
2021/06/21 10:30:19;;;;;;;2.33;1.20;;;;;;;35.36;27.23;100796.28;5045098;28;20041;-64
2021/06/21 10:32:50;;;;;;;1.55;1.05;;;;;;;35.26;26.98;100800.81;5045136;28;20045;-64
2021/06/21 10:35:18;;;;;;;1.92;1.00;;;;;;;34.82;27.11;100789.03;5043986;28;20052;-64
2021/06/21 10:38:00;;;;;;;2.35;1.35;;;;;;;34.74;26.63;100800.66;5045034;28;20041;-64
2021/06/21 10:40:31;;;;;;;1.80;1.10;;;;;;;34.92;26.99;100798.22;5031530;28;20041;-64
2021/06/21 10:43:00;;;;;;;1.77;1.30;;;;;;;35.15;26.87;100794.38;5031107;28;20549;-64
2021/06/21 10:45:29;;;;;;;3.13;1.17;;;;;;;34.94;27.16;100798.09;5035675;28;20045;-64
2021/06/21 10:48:15;;;;;;;2.40;1.38;;;;;;;35.22;27.33;100800.22;5023815;28;20088;-64
2021/06/21 10:50:51;;;;;;;1.67;1.40;;;;;;;35.44;27.59;100804.72;5022355;28;20037;-64
2021/06/21 10:53:19;;;;;;;1.65;1.20;;;;;;;35.62;27.42;100804.97;5019008;28;20439;-64
2021/06/21 10:55:55;;;;;;;1.95;1.20;;;;;;;35.76;27.04;100790.91;5024846;28;20400;-64
2021/06/21 10:58:44;;;;;;;3.35;1.20;;;;;;;35.81;27.25;100796.84;5045033;28;20044;-64
2021/06/21 11:01:32;;;;;;;2.58;1.58;;;;;;;35.35;27.93;100800.91;5044105;28;20033;-64
2021/06/21 11:03:59;;;;;;;2.63;1.50;;;;;;;35.24;28.58;100798.22;5042681;28;20635;-64
2021/06/21 11:06:41;;;;;;;2.63;1.60;;;;;;;35.43;28.08;100797.50;5045222;28;20505;-65
2021/06/21 11:09:11;;;;;;;2.30;1.50;;;;;;;35.46;28.31;100802.69;5046823;28;20053;-64
2021/06/21 11:11:44;;;;;;;2.35;1.30;;;;;;;35.47;28.52;100805.31;5048957;28;20036;-64
2021/06/21 11:14:14;;;;;;;1.77;1.25;;;;;;;35.40;28.36;100798.63;5041148;28;20041;-64
2021/06/21 11:16:43;;;;;;;2.33;1.55;;;;;;;35.22;29.00;100802.09;5047460;28;20040;-64
2021/06/21 11:19:41;;;;;;;4.20;1.85;;;;;;;35.12;29.44;100801.97;5037816;28;20371;-64
2021/06/21 11:22:10;;;;;;;1.90;1.40;;;;;;;35.27;29.03;100811.69;5018256;28;20111;-64
2021/06/21 11:24:58;;;;;;;2.70;1.50;;;;;;;35.47;28.96;100805.31;5029989;28;20037;-66
2021/06/21 11:27:43;;;;;;;1.88;1.27;;;;;;;35.35;28.63;100811.88;5006152;28;20050;-64
2021/06/21 11:30:26;;;;;;;1.85;1.30;;;;;;;35.22;29.11;100805.72;5025436;28;20498;-65
2021/06/21 11:32:56;;;;;;;2.17;1.75;;;;;;;35.37;28.81;100807.16;5026029;28;20095;-64
2021/06/21 11:35:59;;;;;;;2.45;1.38;;;;;;;35.66;28.97;100815.53;5034284;28;20119;-64
2021/06/21 11:38:34;;;;;;;1.15;1.00;;;;;;;35.54;28.89;100811.13;5027569;28;20045;-64